sensor_id;sensor_type;location;lat;lon;timestamp;P1;durP1;ratioP1;P2;durP2;ratioP2
71566;SDS011;59403;47.456;19.120;2023-12-28T00:00:03;30.10;;;16.83;;
71566;SDS011;59403;47.456;19.120;2023-12-28T00:02:33;31.87;;;17.05;;
71566;SDS011;59403;47.456;19.120;2023-12-28T00:04:59;29.55;;;16.37;;
71566;SDS011;59403;47.456;19.120;2023-12-28T00:07:26;31.35;;;16.67;;
71566;SDS011;59403;47.456;19.120;2023-12-28T00:09:53;27.17;;;15.85;;
71566;SDS011;59403;47.456;19.120;2023-12-28T00:12:22;30.70;;;15.97;;
71566;SDS011;59403;47.456;19.120;2023-12-28T00:14:48;27.65;;;15.80;;
71566;SDS011;59403;47.456;19.120;2023-12-28T00:17:16;27.73;;;15.73;;
71566;SDS011;59403;47.456;19.120;2023-12-28T00:19:43;25.40;;;14.70;;
71566;SDS011;59403;47.456;19.120;2023-12-28T00:22:09;24.60;;;15.93;;
71566;SDS011;59403;47.456;19.120;2023-12-28T00:24:36;29.77;;;15.37;;
71566;SDS011;59403;47.456;19.120;2023-12-28T00:27:02;27.35;;;15.52;;
71566;SDS011;59403;47.456;19.120;2023-12-28T00:29:31;27.95;;;15.98;;
71566;SDS011;59403;47.456;19.120;2023-12-28T00:31:59;30.20;;;15.48;;
71566;SDS011;59403;47.456;19.120;2023-12-28T00:34:25;28.50;;;15.00;;
71566;SDS011;59403;47.456;19.120;2023-12-28T00:36:52;25.17;;;14.70;;
71566;SDS011;59403;47.456;19.120;2023-12-28T00:39:18;25.08;;;14.45;;
71566;SDS011;59403;47.456;19.120;2023-12-28T00:41:45;25.58;;;14.50;;
71566;SDS011;59403;47.456;19.120;2023-12-28T00:44:11;23.77;;;14.15;;
71566;SDS011;59403;47.456;19.120;2023-12-28T00:46:39;24.55;;;14.07;;
71566;SDS011;59403;47.456;19.120;2023-12-28T00:49:06;21.73;;;13.20;;
71566;SDS011;59403;47.456;19.120;2023-12-28T00:51:33;27.15;;;15.25;;
71566;SDS011;59403;47.456;19.120;2023-12-28T00:53:59;26.02;;;14.98;;
71566;SDS011;59403;47.456;19.120;2023-12-28T00:56:26;26.35;;;14.43;;
71566;SDS011;59403;47.456;19.120;2023-12-28T00:58:53;26.73;;;14.60;;
71566;SDS011;59403;47.456;19.120;2023-12-28T01:01:20;22.87;;;14.00;;
71566;SDS011;59403;47.456;19.120;2023-12-28T01:03:48;22.35;;;13.10;;
71566;SDS011;59403;47.456;19.120;2023-12-28T01:06:14;23.77;;;13.98;;
71566;SDS011;59403;47.456;19.120;2023-12-28T01:08:41;28.40;;;14.82;;
71566;SDS011;59403;47.456;19.120;2023-12-28T01:11:08;23.50;;;13.70;;
71566;SDS011;59403;47.456;19.120;2023-12-28T01:13:37;22.17;;;12.40;;
71566;SDS011;59403;47.456;19.120;2023-12-28T01:16:04;23.48;;;13.13;;
71566;SDS011;59403;47.456;19.120;2023-12-28T01:18:31;23.08;;;13.65;;
71566;SDS011;59403;47.456;19.120;2023-12-28T01:20:59;24.25;;;11.70;;
71566;SDS011;59403;47.456;19.120;2023-12-28T01:23:25;20.67;;;12.60;;
71566;SDS011;59403;47.456;19.120;2023-12-28T01:25:52;22.33;;;11.80;;
71566;SDS011;59403;47.456;19.120;2023-12-28T01:28:21;20.23;;;11.32;;
71566;SDS011;59403;47.456;19.120;2023-12-28T01:30:47;22.70;;;13.23;;
71566;SDS011;59403;47.456;19.120;2023-12-28T01:33:14;19.95;;;12.23;;
71566;SDS011;59403;47.456;19.120;2023-12-28T01:35:40;23.10;;;12.20;;
71566;SDS011;59403;47.456;19.120;2023-12-28T01:38:08;20.70;;;11.70;;
71566;SDS011;59403;47.456;19.120;2023-12-28T01:40:35;22.98;;;12.50;;
71566;SDS011;59403;47.456;19.120;2023-12-28T01:43:02;18.98;;;11.98;;
71566;SDS011;59403;47.456;19.120;2023-12-28T01:45:29;20.55;;;11.77;;
71566;SDS011;59403;47.456;19.120;2023-12-28T01:47:55;22.90;;;13.35;;
71566;SDS011;59403;47.456;19.120;2023-12-28T01:50:24;18.93;;;11.30;;
71566;SDS011;59403;47.456;19.120;2023-12-28T01:52:52;21.33;;;11.57;;
71566;SDS011;59403;47.456;19.120;2023-12-28T01:55:20;21.25;;;11.82;;
71566;SDS011;59403;47.456;19.120;2023-12-28T01:57:47;22.55;;;11.30;;
71566;SDS011;59403;47.456;19.120;2023-12-28T02:00:14;21.30;;;11.32;;
71566;SDS011;59403;47.456;19.120;2023-12-28T02:05:23;19.55;;;11.40;;
71566;SDS011;59403;47.456;19.120;2023-12-28T02:07:50;21.98;;;11.85;;
71566;SDS011;59403;47.456;19.120;2023-12-28T02:10:20;22.52;;;11.48;;
71566;SDS011;59403;47.456;19.120;2023-12-28T02:12:51;20.30;;;11.43;;
71566;SDS011;59403;47.456;19.120;2023-12-28T02:15:18;20.90;;;10.90;;
71566;SDS011;59403;47.456;19.120;2023-12-28T02:17:47;19.83;;;11.48;;
71566;SDS011;59403;47.456;19.120;2023-12-28T02:20:17;21.95;;;11.45;;
71566;SDS011;59403;47.456;19.120;2023-12-28T02:22:46;19.98;;;10.82;;
71566;SDS011;59403;47.456;19.120;2023-12-28T02:25:15;18.92;;;10.15;;
71566;SDS011;59403;47.456;19.120;2023-12-28T02:27:42;19.33;;;9.83;;
71566;SDS011;59403;47.456;19.120;2023-12-28T02:30:11;20.15;;;10.27;;
71566;SDS011;59403;47.456;19.120;2023-12-28T02:32:42;19.12;;;11.43;;
71566;SDS011;59403;47.456;19.120;2023-12-28T02:35:16;20.08;;;10.00;;
71566;SDS011;59403;47.456;19.120;2023-12-28T02:37:46;19.77;;;10.30;;
71566;SDS011;59403;47.456;19.120;2023-12-28T02:40:18;19.33;;;10.43;;
71566;SDS011;59403;47.456;19.120;2023-12-28T02:42:47;16.20;;;9.50;;
71566;SDS011;59403;47.456;19.120;2023-12-28T02:45:14;19.08;;;10.57;;
71566;SDS011;59403;47.456;19.120;2023-12-28T02:47:40;19.08;;;10.35;;
71566;SDS011;59403;47.456;19.120;2023-12-28T02:50:09;17.30;;;9.80;;
71566;SDS011;59403;47.456;19.120;2023-12-28T02:52:36;18.13;;;9.93;;
71566;SDS011;59403;47.456;19.120;2023-12-28T02:55:03;16.23;;;9.18;;
71566;SDS011;59403;47.456;19.120;2023-12-28T02:57:31;17.15;;;10.15;;
71566;SDS011;59403;47.456;19.120;2023-12-28T02:59:58;17.90;;;9.13;;
71566;SDS011;59403;47.456;19.120;2023-12-28T03:02:27;17.42;;;9.77;;
71566;SDS011;59403;47.456;19.120;2023-12-28T03:04:54;18.23;;;9.00;;
71566;SDS011;59403;47.456;19.120;2023-12-28T03:07:21;18.52;;;10.07;;
71566;SDS011;59403;47.456;19.120;2023-12-28T03:09:48;16.37;;;10.27;;
71566;SDS011;59403;47.456;19.120;2023-12-28T03:12:14;19.00;;;10.05;;
71566;SDS011;59403;47.456;19.120;2023-12-28T03:14:43;19.83;;;9.50;;
71566;SDS011;59403;47.456;19.120;2023-12-28T03:17:09;15.93;;;9.27;;
71566;SDS011;59403;47.456;19.120;2023-12-28T03:19:37;19.92;;;10.07;;
71566;SDS011;59403;47.456;19.120;2023-12-28T03:22:03;17.10;;;10.05;;
71566;SDS011;59403;47.456;19.120;2023-12-28T03:24:30;18.05;;;9.52;;
71566;SDS011;59403;47.456;19.120;2023-12-28T03:26:57;19.80;;;10.55;;
71566;SDS011;59403;47.456;19.120;2023-12-28T03:29:23;17.20;;;9.23;;
71566;SDS011;59403;47.456;19.120;2023-12-28T03:31:52;16.02;;;9.40;;
71566;SDS011;59403;47.456;19.120;2023-12-28T03:34:18;16.20;;;9.43;;
71566;SDS011;59403;47.456;19.120;2023-12-28T03:36:45;17.02;;;9.27;;
71566;SDS011;59403;47.456;19.120;2023-12-28T03:39:11;16.73;;;8.73;;
71566;SDS011;59403;47.456;19.120;2023-12-28T03:41:38;16.67;;;9.00;;
71566;SDS011;59403;47.456;19.120;2023-12-28T03:44:05;15.52;;;9.70;;
71566;SDS011;59403;47.456;19.120;2023-12-28T03:46:31;15.70;;;8.88;;
71566;SDS011;59403;47.456;19.120;2023-12-28T03:48:59;16.45;;;9.13;;
71566;SDS011;59403;47.456;19.120;2023-12-28T03:51:26;16.65;;;9.15;;
71566;SDS011;59403;47.456;19.120;2023-12-28T03:53:52;15.60;;;8.47;;
71566;SDS011;59403;47.456;19.120;2023-12-28T03:56:20;16.65;;;8.80;;
71566;SDS011;59403;47.456;19.120;2023-12-28T03:58:48;18.12;;;9.20;;
71566;SDS011;59403;47.456;19.120;2023-12-28T04:01:15;16.60;;;9.10;;
71566;SDS011;59403;47.456;19.120;2023-12-28T04:03:42;16.45;;;9.38;;
71566;SDS011;59403;47.456;19.120;2023-12-28T04:06:10;19.93;;;9.17;;
71566;SDS011;59403;47.456;19.120;2023-12-28T04:08:37;17.50;;;9.10;;
71566;SDS011;59403;47.456;19.120;2023-12-28T04:11:04;17.37;;;9.60;;
71566;SDS011;59403;47.456;19.120;2023-12-28T04:13:31;16.83;;;8.85;;
71566;SDS011;59403;47.456;19.120;2023-12-28T04:15:57;19.37;;;11.10;;
71566;SDS011;59403;47.456;19.120;2023-12-28T04:18:24;20.17;;;10.87;;
71566;SDS011;59403;47.456;19.120;2023-12-28T04:20:51;18.12;;;10.10;;
71566;SDS011;59403;47.456;19.120;2023-12-28T04:23:19;18.10;;;10.73;;
71566;SDS011;59403;47.456;19.120;2023-12-28T04:25:46;18.67;;;10.95;;
71566;SDS011;59403;47.456;19.120;2023-12-28T04:28:13;23.00;;;11.80;;
71566;SDS011;59403;47.456;19.120;2023-12-28T04:30:40;18.67;;;10.67;;
71566;SDS011;59403;47.456;19.120;2023-12-28T04:33:07;22.60;;;12.23;;
71566;SDS011;59403;47.456;19.120;2023-12-28T04:35:34;23.70;;;13.38;;
71566;SDS011;59403;47.456;19.120;2023-12-28T04:38:00;21.70;;;12.37;;
71566;SDS011;59403;47.456;19.120;2023-12-28T04:40:28;21.50;;;12.23;;
71566;SDS011;59403;47.456;19.120;2023-12-28T04:42:55;20.77;;;11.57;;
71566;SDS011;59403;47.456;19.120;2023-12-28T04:45:21;19.37;;;11.82;;
71566;SDS011;59403;47.456;19.120;2023-12-28T04:47:48;22.30;;;12.48;;
71566;SDS011;59403;47.456;19.120;2023-12-28T04:50:15;24.02;;;12.37;;
71566;SDS011;59403;47.456;19.120;2023-12-28T04:52:41;18.10;;;10.55;;
71566;SDS011;59403;47.456;19.120;2023-12-28T04:55:08;18.77;;;10.87;;
71566;SDS011;59403;47.456;19.120;2023-12-28T04:57:36;19.92;;;11.38;;
71566;SDS011;59403;47.456;19.120;2023-12-28T05:00:03;17.73;;;10.90;;
71566;SDS011;59403;47.456;19.120;2023-12-28T05:02:30;18.37;;;10.20;;
71566;SDS011;59403;47.456;19.120;2023-12-28T05:04:56;21.12;;;10.60;;
71566;SDS011;59403;47.456;19.120;2023-12-28T05:07:23;18.40;;;10.70;;
71566;SDS011;59403;47.456;19.120;2023-12-28T05:09:50;20.70;;;10.73;;
71566;SDS011;59403;47.456;19.120;2023-12-28T05:12:15;19.60;;;10.75;;
71566;SDS011;59403;47.456;19.120;2023-12-28T05:14:43;18.57;;;10.33;;
71566;SDS011;59403;47.456;19.120;2023-12-28T05:17:10;17.62;;;10.00;;
71566;SDS011;59403;47.456;19.120;2023-12-28T05:19:37;18.77;;;10.55;;
71566;SDS011;59403;47.456;19.120;2023-12-28T05:22:03;18.35;;;10.55;;
71566;SDS011;59403;47.456;19.120;2023-12-28T05:24:31;17.70;;;9.68;;
71566;SDS011;59403;47.456;19.120;2023-12-28T05:26:59;18.00;;;9.93;;
71566;SDS011;59403;47.456;19.120;2023-12-28T05:29:25;16.42;;;9.73;;
71566;SDS011;59403;47.456;19.120;2023-12-28T05:31:53;18.98;;;10.60;;
71566;SDS011;59403;47.456;19.120;2023-12-28T05:34:20;18.02;;;9.65;;
71566;SDS011;59403;47.456;19.120;2023-12-28T05:36:46;19.55;;;10.10;;
71566;SDS011;59403;47.456;19.120;2023-12-28T05:39:13;17.87;;;9.77;;
71566;SDS011;59403;47.456;19.120;2023-12-28T05:41:40;17.60;;;9.52;;
71566;SDS011;59403;47.456;19.120;2023-12-28T05:44:06;18.73;;;10.30;;
71566;SDS011;59403;47.456;19.120;2023-12-28T05:46:33;18.17;;;9.73;;
71566;SDS011;59403;47.456;19.120;2023-12-28T05:49:01;18.52;;;10.25;;
71566;SDS011;59403;47.456;19.120;2023-12-28T05:51:27;17.50;;;10.23;;
71566;SDS011;59403;47.456;19.120;2023-12-28T05:53:54;16.35;;;9.63;;
71566;SDS011;59403;47.456;19.120;2023-12-28T05:56:21;17.15;;;9.18;;
71566;SDS011;59403;47.456;19.120;2023-12-28T05:58:47;17.40;;;10.98;;
71566;SDS011;59403;47.456;19.120;2023-12-28T06:01:14;15.75;;;9.20;;
71566;SDS011;59403;47.456;19.120;2023-12-28T06:03:40;20.53;;;10.03;;
71566;SDS011;59403;47.456;19.120;2023-12-28T06:06:08;19.00;;;10.52;;
71566;SDS011;59403;47.456;19.120;2023-12-28T06:08:35;19.42;;;10.30;;
71566;SDS011;59403;47.456;19.120;2023-12-28T06:11:02;18.12;;;9.90;;
71566;SDS011;59403;47.456;19.120;2023-12-28T06:13:28;18.77;;;10.25;;
71566;SDS011;59403;47.456;19.120;2023-12-28T06:15:55;18.23;;;9.90;;
71566;SDS011;59403;47.456;19.120;2023-12-28T06:18:22;20.98;;;10.65;;
71566;SDS011;59403;47.456;19.120;2023-12-28T06:20:49;18.80;;;10.32;;
71566;SDS011;59403;47.456;19.120;2023-12-28T06:23:17;23.87;;;10.45;;
71566;SDS011;59403;47.456;19.120;2023-12-28T06:25:44;19.37;;;10.05;;
71566;SDS011;59403;47.456;19.120;2023-12-28T06:28:10;22.43;;;10.60;;
71566;SDS011;59403;47.456;19.120;2023-12-28T06:30:37;24.85;;;11.35;;
71566;SDS011;59403;47.456;19.120;2023-12-28T06:33:04;30.58;;;12.55;;
71566;SDS011;59403;47.456;19.120;2023-12-28T06:35:31;91.05;;;33.60;;
71566;SDS011;59403;47.456;19.120;2023-12-28T06:37:57;130.80;;;45.00;;
71566;SDS011;59403;47.456;19.120;2023-12-28T06:40:25;136.20;;;47.63;;
71566;SDS011;59403;47.456;19.120;2023-12-28T06:42:52;130.80;;;42.62;;
71566;SDS011;59403;47.456;19.120;2023-12-28T06:45:19;147.13;;;49.08;;
71566;SDS011;59403;47.456;19.120;2023-12-28T06:47:47;189.02;;;62.90;;
71566;SDS011;59403;47.456;19.120;2023-12-28T06:50:14;174.30;;;55.50;;
71566;SDS011;59403;47.456;19.120;2023-12-28T06:52:41;127.17;;;44.47;;
71566;SDS011;59403;47.456;19.120;2023-12-28T06:55:07;133.55;;;46.42;;
71566;SDS011;59403;47.456;19.120;2023-12-28T06:57:36;146.68;;;42.67;;
71566;SDS011;59403;47.456;19.120;2023-12-28T07:00:02;160.10;;;49.17;;
71566;SDS011;59403;47.456;19.120;2023-12-28T07:02:30;223.87;;;61.50;;
71566;SDS011;59403;47.456;19.120;2023-12-28T07:04:56;245.47;;;70.70;;
71566;SDS011;59403;47.456;19.120;2023-12-28T07:07:23;249.07;;;70.75;;
71566;SDS011;59403;47.456;19.120;2023-12-28T07:09:50;239.38;;;66.62;;
71566;SDS011;59403;47.456;19.120;2023-12-28T07:12:16;293.25;;;82.12;;
71566;SDS011;59403;47.456;19.120;2023-12-28T07:14:46;323.60;;;89.95;;
71566;SDS011;59403;47.456;19.120;2023-12-28T07:17:13;313.50;;;87.93;;
71566;SDS011;59403;47.456;19.120;2023-12-28T07:19:42;248.07;;;72.45;;
71566;SDS011;59403;47.456;19.120;2023-12-28T07:22:09;256.52;;;69.57;;
71566;SDS011;59403;47.456;19.120;2023-12-28T07:24:35;258.27;;;73.03;;
71566;SDS011;59403;47.456;19.120;2023-12-28T07:27:02;273.90;;;79.32;;
71566;SDS011;59403;47.456;19.120;2023-12-28T07:29:29;250.73;;;72.97;;
71566;SDS011;59403;47.456;19.120;2023-12-28T07:31:57;245.98;;;69.72;;
71566;SDS011;59403;47.456;19.120;2023-12-28T07:34:24;212.25;;;61.17;;
71566;SDS011;59403;47.456;19.120;2023-12-28T07:36:50;200.27;;;59.50;;
71566;SDS011;59403;47.456;19.120;2023-12-28T07:39:17;203.02;;;58.08;;
71566;SDS011;59403;47.456;19.120;2023-12-28T07:41:44;162.60;;;50.73;;
71566;SDS011;59403;47.456;19.120;2023-12-28T07:44:10;158.27;;;48.87;;
71566;SDS011;59403;47.456;19.120;2023-12-28T07:46:37;132.05;;;40.35;;
71566;SDS011;59403;47.456;19.120;2023-12-28T07:49:05;131.80;;;39.33;;
71566;SDS011;59403;47.456;19.120;2023-12-28T07:51:31;107.97;;;35.38;;
71566;SDS011;59403;47.456;19.120;2023-12-28T07:53:58;141.60;;;43.57;;
71566;SDS011;59403;47.456;19.120;2023-12-28T07:56:25;116.40;;;39.03;;
71566;SDS011;59403;47.456;19.120;2023-12-28T07:58:51;103.70;;;33.55;;
71566;SDS011;59403;47.456;19.120;2023-12-28T08:01:18;71.70;;;25.40;;
71566;SDS011;59403;47.456;19.120;2023-12-28T08:03:45;60.85;;;22.92;;
71566;SDS011;59403;47.456;19.120;2023-12-28T08:06:13;45.97;;;19.17;;
71566;SDS011;59403;47.456;19.120;2023-12-28T08:08:40;37.30;;;16.90;;
71566;SDS011;59403;47.456;19.120;2023-12-28T08:11:06;48.38;;;18.37;;
71566;SDS011;59403;47.456;19.120;2023-12-28T08:13:33;37.65;;;16.52;;
71566;SDS011;59403;47.456;19.120;2023-12-28T08:15:59;28.80;;;13.95;;
71566;SDS011;59403;47.456;19.120;2023-12-28T08:18:26;32.83;;;15.27;;
71566;SDS011;59403;47.456;19.120;2023-12-28T08:20:52;31.33;;;14.40;;
71566;SDS011;59403;47.456;19.120;2023-12-28T08:23:20;28.77;;;14.25;;
71566;SDS011;59403;47.456;19.120;2023-12-28T08:25:47;28.27;;;13.35;;
71566;SDS011;59403;47.456;19.120;2023-12-28T08:28:14;31.95;;;15.43;;
71566;SDS011;59403;47.456;19.120;2023-12-28T08:30:42;26.63;;;13.80;;
71566;SDS011;59403;47.456;19.120;2023-12-28T08:33:08;26.83;;;13.82;;
71566;SDS011;59403;47.456;19.120;2023-12-28T08:35:35;25.73;;;13.35;;
71566;SDS011;59403;47.456;19.120;2023-12-28T08:38:02;28.55;;;14.32;;
71566;SDS011;59403;47.456;19.120;2023-12-28T08:40:30;31.65;;;14.30;;
71566;SDS011;59403;47.456;19.120;2023-12-28T08:42:56;26.20;;;13.83;;
71566;SDS011;59403;47.456;19.120;2023-12-28T08:45:23;28.35;;;13.95;;
71566;SDS011;59403;47.456;19.120;2023-12-28T08:47:50;32.33;;;14.73;;
71566;SDS011;59403;47.456;19.120;2023-12-28T08:50:16;30.10;;;14.70;;
71566;SDS011;59403;47.456;19.120;2023-12-28T08:52:43;28.77;;;14.57;;
71566;SDS011;59403;47.456;19.120;2023-12-28T08:55:10;27.20;;;14.70;;
71566;SDS011;59403;47.456;19.120;2023-12-28T08:57:39;30.08;;;14.48;;
71566;SDS011;59403;47.456;19.120;2023-12-28T09:00:06;29.10;;;14.52;;
71566;SDS011;59403;47.456;19.120;2023-12-28T09:02:33;26.48;;;15.00;;
71566;SDS011;59403;47.456;19.120;2023-12-28T09:05:00;29.77;;;15.30;;
71566;SDS011;59403;47.456;19.120;2023-12-28T09:07:27;29.67;;;15.00;;
71566;SDS011;59403;47.456;19.120;2023-12-28T09:09:53;30.67;;;15.10;;
71566;SDS011;59403;47.456;19.120;2023-12-28T09:12:20;28.87;;;14.32;;
71566;SDS011;59403;47.456;19.120;2023-12-28T09:14:48;25.60;;;14.68;;
71566;SDS011;59403;47.456;19.120;2023-12-28T09:17:17;27.17;;;13.88;;
71566;SDS011;59403;47.456;19.120;2023-12-28T09:19:44;26.43;;;14.50;;
71566;SDS011;59403;47.456;19.120;2023-12-28T09:22:12;29.87;;;14.87;;
71566;SDS011;59403;47.456;19.120;2023-12-28T09:24:39;29.10;;;14.38;;
71566;SDS011;59403;47.456;19.120;2023-12-28T09:27:06;27.08;;;13.57;;
71566;SDS011;59403;47.456;19.120;2023-12-28T09:29:32;30.15;;;15.13;;
71566;SDS011;59403;47.456;19.120;2023-12-28T09:32:01;30.90;;;15.00;;
71566;SDS011;59403;47.456;19.120;2023-12-28T09:34:28;31.60;;;15.18;;
71566;SDS011;59403;47.456;19.120;2023-12-28T09:36:54;29.33;;;14.75;;
71566;SDS011;59403;47.456;19.120;2023-12-28T09:39:21;24.25;;;14.00;;
71566;SDS011;59403;47.456;19.120;2023-12-28T09:41:48;29.25;;;14.68;;
71566;SDS011;59403;47.456;19.120;2023-12-28T09:44:19;28.13;;;15.43;;
71566;SDS011;59403;47.456;19.120;2023-12-28T09:46:46;28.60;;;15.55;;
71566;SDS011;59403;47.456;19.120;2023-12-28T09:49:14;33.03;;;15.15;;
71566;SDS011;59403;47.456;19.120;2023-12-28T09:51:42;29.08;;;15.70;;
71566;SDS011;59403;47.456;19.120;2023-12-28T09:54:09;28.10;;;15.57;;
71566;SDS011;59403;47.456;19.120;2023-12-28T09:56:35;29.87;;;16.13;;
71566;SDS011;59403;47.456;19.120;2023-12-28T09:59:03;27.85;;;15.40;;
71566;SDS011;59403;47.456;19.120;2023-12-28T10:01:31;32.45;;;15.88;;
71566;SDS011;59403;47.456;19.120;2023-12-28T10:04:00;31.75;;;15.43;;
71566;SDS011;59403;47.456;19.120;2023-12-28T10:06:29;29.85;;;15.40;;
71566;SDS011;59403;47.456;19.120;2023-12-28T10:08:56;28.37;;;15.73;;
71566;SDS011;59403;47.456;19.120;2023-12-28T10:11:22;30.27;;;15.57;;
71566;SDS011;59403;47.456;19.120;2023-12-28T10:13:53;29.00;;;15.18;;
71566;SDS011;59403;47.456;19.120;2023-12-28T10:16:19;29.60;;;15.82;;
71566;SDS011;59403;47.456;19.120;2023-12-28T10:18:46;28.90;;;15.27;;
71566;SDS011;59403;47.456;19.120;2023-12-28T10:21:13;30.87;;;16.97;;
71566;SDS011;59403;47.456;19.120;2023-12-28T10:23:41;30.62;;;15.88;;
71566;SDS011;59403;47.456;19.120;2023-12-28T10:26:07;27.27;;;15.35;;
71566;SDS011;59403;47.456;19.120;2023-12-28T10:28:34;29.23;;;15.90;;
71566;SDS011;59403;47.456;19.120;2023-12-28T10:31:02;28.73;;;16.30;;
71566;SDS011;59403;47.456;19.120;2023-12-28T10:33:33;28.83;;;15.77;;
71566;SDS011;59403;47.456;19.120;2023-12-28T10:36:00;27.98;;;16.17;;
71566;SDS011;59403;47.456;19.120;2023-12-28T10:38:32;31.65;;;15.30;;
71566;SDS011;59403;47.456;19.120;2023-12-28T10:41:03;31.20;;;16.80;;
71566;SDS011;59403;47.456;19.120;2023-12-28T10:43:32;31.20;;;17.25;;
71566;SDS011;59403;47.456;19.120;2023-12-28T10:46:08;26.93;;;16.10;;
71566;SDS011;59403;47.456;19.120;2023-12-28T10:48:37;30.40;;;16.70;;
71566;SDS011;59403;47.456;19.120;2023-12-28T10:51:07;27.92;;;16.05;;
71566;SDS011;59403;47.456;19.120;2023-12-28T10:53:37;29.12;;;16.05;;
71566;SDS011;59403;47.456;19.120;2023-12-28T10:56:17;31.33;;;16.42;;
71566;SDS011;59403;47.456;19.120;2023-12-28T10:58:54;27.23;;;16.30;;
71566;SDS011;59403;47.456;19.120;2023-12-28T11:01:31;30.20;;;15.82;;
71566;SDS011;59403;47.456;19.120;2023-12-28T11:04:03;32.13;;;16.83;;
71566;SDS011;59403;47.456;19.120;2023-12-28T11:06:34;31.92;;;17.45;;
71566;SDS011;59403;47.456;19.120;2023-12-28T11:09:03;27.87;;;15.25;;
71566;SDS011;59403;47.456;19.120;2023-12-28T11:11:31;30.67;;;15.17;;
71566;SDS011;59403;47.456;19.120;2023-12-28T11:13:59;29.15;;;15.48;;
71566;SDS011;59403;47.456;19.120;2023-12-28T11:16:27;29.05;;;15.88;;
71566;SDS011;59403;47.456;19.120;2023-12-28T11:18:55;27.05;;;15.38;;
71566;SDS011;59403;47.456;19.120;2023-12-28T11:21:22;26.73;;;15.95;;
71566;SDS011;59403;47.456;19.120;2023-12-28T11:23:50;25.43;;;14.97;;
71566;SDS011;59403;47.456;19.120;2023-12-28T11:26:17;28.08;;;14.98;;
71566;SDS011;59403;47.456;19.120;2023-12-28T11:28:46;25.75;;;14.73;;
71566;SDS011;59403;47.456;19.120;2023-12-28T11:31:13;27.55;;;15.18;;
71566;SDS011;59403;47.456;19.120;2023-12-28T11:33:43;28.02;;;14.87;;
71566;SDS011;59403;47.456;19.120;2023-12-28T11:36:10;27.30;;;14.77;;
71566;SDS011;59403;47.456;19.120;2023-12-28T11:38:37;28.20;;;15.07;;
71566;SDS011;59403;47.456;19.120;2023-12-28T11:41:07;24.65;;;14.23;;
71566;SDS011;59403;47.456;19.120;2023-12-28T11:43:34;23.12;;;13.73;;
71566;SDS011;59403;47.456;19.120;2023-12-28T11:46:03;28.42;;;14.00;;
71566;SDS011;59403;47.456;19.120;2023-12-28T11:48:31;21.33;;;13.60;;
71566;SDS011;59403;47.456;19.120;2023-12-28T11:50:58;26.40;;;14.25;;
71566;SDS011;59403;47.456;19.120;2023-12-28T11:53:26;25.27;;;13.73;;
71566;SDS011;59403;47.456;19.120;2023-12-28T11:55:58;22.75;;;13.77;;
71566;SDS011;59403;47.456;19.120;2023-12-28T11:58:27;27.17;;;14.25;;
71566;SDS011;59403;47.456;19.120;2023-12-28T12:00:54;26.43;;;13.93;;
71566;SDS011;59403;47.456;19.120;2023-12-28T12:03:22;26.75;;;14.10;;
71566;SDS011;59403;47.456;19.120;2023-12-28T12:05:50;25.42;;;14.20;;
71566;SDS011;59403;47.456;19.120;2023-12-28T12:08:17;27.02;;;14.07;;
71566;SDS011;59403;47.456;19.120;2023-12-28T12:10:44;28.90;;;15.18;;
71566;SDS011;59403;47.456;19.120;2023-12-28T12:13:10;27.63;;;15.03;;
71566;SDS011;59403;47.456;19.120;2023-12-28T12:15:37;25.42;;;14.80;;
71566;SDS011;59403;47.456;19.120;2023-12-28T12:18:05;28.65;;;15.30;;
71566;SDS011;59403;47.456;19.120;2023-12-28T12:20:33;25.40;;;14.23;;
71566;SDS011;59403;47.456;19.120;2023-12-28T12:23:00;28.15;;;14.13;;
71566;SDS011;59403;47.456;19.120;2023-12-28T12:25:28;32.57;;;15.50;;
71566;SDS011;59403;47.456;19.120;2023-12-28T12:27:55;26.48;;;15.18;;
71566;SDS011;59403;47.456;19.120;2023-12-28T12:30:21;28.62;;;15.98;;
71566;SDS011;59403;47.456;19.120;2023-12-28T12:32:48;29.63;;;15.48;;
71566;SDS011;59403;47.456;19.120;2023-12-28T12:35:15;30.98;;;15.90;;
71566;SDS011;59403;47.456;19.120;2023-12-28T12:37:47;25.50;;;15.07;;
71566;SDS011;59403;47.456;19.120;2023-12-28T12:40:16;25.67;;;14.90;;
71566;SDS011;59403;47.456;19.120;2023-12-28T12:42:51;26.20;;;15.75;;
71566;SDS011;59403;47.456;19.120;2023-12-28T12:45:18;25.73;;;15.60;;
71566;SDS011;59403;47.456;19.120;2023-12-28T12:47:45;27.87;;;16.37;;
71566;SDS011;59403;47.456;19.120;2023-12-28T12:50:12;25.23;;;15.33;;
71566;SDS011;59403;47.456;19.120;2023-12-28T12:52:39;28.05;;;14.90;;
71566;SDS011;59403;47.456;19.120;2023-12-28T12:55:10;25.17;;;14.68;;
71566;SDS011;59403;47.456;19.120;2023-12-28T12:57:37;26.80;;;15.10;;
71566;SDS011;59403;47.456;19.120;2023-12-28T13:00:04;27.33;;;14.85;;
71566;SDS011;59403;47.456;19.120;2023-12-28T13:02:34;25.97;;;14.80;;
71566;SDS011;59403;47.456;19.120;2023-12-28T13:05:01;26.98;;;14.93;;
71566;SDS011;59403;47.456;19.120;2023-12-28T13:07:29;27.65;;;15.93;;
71566;SDS011;59403;47.456;19.120;2023-12-28T13:09:56;26.50;;;13.77;;
71566;SDS011;59403;47.456;19.120;2023-12-28T13:12:23;24.52;;;13.52;;
71566;SDS011;59403;47.456;19.120;2023-12-28T13:14:50;24.40;;;12.20;;
71566;SDS011;59403;47.456;19.120;2023-12-28T13:17:17;22.90;;;13.70;;
71566;SDS011;59403;47.456;19.120;2023-12-28T13:19:43;25.65;;;13.20;;
71566;SDS011;59403;47.456;19.120;2023-12-28T13:22:10;22.80;;;12.98;;
71566;SDS011;59403;47.456;19.120;2023-12-28T13:24:37;22.55;;;12.45;;
71566;SDS011;59403;47.456;19.120;2023-12-28T13:27:03;20.90;;;12.20;;
71566;SDS011;59403;47.456;19.120;2023-12-28T13:29:32;23.20;;;13.07;;
71566;SDS011;59403;47.456;19.120;2023-12-28T13:31:58;22.08;;;12.75;;
71566;SDS011;59403;47.456;19.120;2023-12-28T13:34:25;22.25;;;12.15;;
71566;SDS011;59403;47.456;19.120;2023-12-28T13:36:53;22.20;;;12.95;;
71566;SDS011;59403;47.456;19.120;2023-12-28T13:39:20;24.17;;;14.23;;
71566;SDS011;59403;47.456;19.120;2023-12-28T13:41:46;22.20;;;13.45;;
71566;SDS011;59403;47.456;19.120;2023-12-28T13:44:13;23.73;;;13.55;;
71566;SDS011;59403;47.456;19.120;2023-12-28T13:46:41;23.87;;;14.35;;
71566;SDS011;59403;47.456;19.120;2023-12-28T13:49:08;27.67;;;14.23;;
71566;SDS011;59403;47.456;19.120;2023-12-28T13:51:35;23.60;;;13.87;;
71566;SDS011;59403;47.456;19.120;2023-12-28T13:54:02;26.35;;;15.05;;
71566;SDS011;59403;47.456;19.120;2023-12-28T13:56:29;28.00;;;15.05;;
71566;SDS011;59403;47.456;19.120;2023-12-28T13:58:56;25.35;;;14.65;;
71566;SDS011;59403;47.456;19.120;2023-12-28T14:01:22;27.15;;;14.25;;
71566;SDS011;59403;47.456;19.120;2023-12-28T14:03:51;24.90;;;14.20;;
71566;SDS011;59403;47.456;19.120;2023-12-28T14:06:17;25.52;;;14.82;;
71566;SDS011;59403;47.456;19.120;2023-12-28T14:08:44;25.55;;;14.90;;
71566;SDS011;59403;47.456;19.120;2023-12-28T14:11:11;28.45;;;15.32;;